sensor_id;sensor_type;location;lat;lon;timestamp;P1;durP1;ratioP1;P2;durP2;ratioP2
23496;SDS011;11925;48.122;11.560;2023-12-04T00:02:09;14.63;;;8.32;;
23496;SDS011;11925;48.122;11.560;2023-12-04T00:04:39;12.93;;;7.97;;
23496;SDS011;11925;48.122;11.560;2023-12-04T00:07:08;14.43;;;8.10;;
23496;SDS011;11925;48.122;11.560;2023-12-04T00:09:36;15.48;;;8.75;;
23496;SDS011;11925;48.122;11.560;2023-12-04T00:12:05;14.23;;;8.05;;
23496;SDS011;11925;48.122;11.560;2023-12-04T00:14:34;13.80;;;8.55;;
23496;SDS011;11925;48.122;11.560;2023-12-04T00:17:03;12.95;;;8.40;;
23496;SDS011;11925;48.122;11.560;2023-12-04T00:19:31;13.23;;;8.38;;
23496;SDS011;11925;48.122;11.560;2023-12-04T00:22:02;13.95;;;9.05;;
23496;SDS011;11925;48.122;11.560;2023-12-04T00:24:30;13.32;;;8.43;;
23496;SDS011;11925;48.122;11.560;2023-12-04T00:26:59;11.88;;;8.10;;
23496;SDS011;11925;48.122;11.560;2023-12-04T00:29:28;13.95;;;8.73;;
23496;SDS011;11925;48.122;11.560;2023-12-04T00:31:56;12.02;;;8.05;;
23496;SDS011;11925;48.122;11.560;2023-12-04T00:34:25;13.57;;;9.02;;
23496;SDS011;11925;48.122;11.560;2023-12-04T00:36:54;14.13;;;8.75;;
23496;SDS011;11925;48.122;11.560;2023-12-04T00:39:24;14.15;;;8.82;;
23496;SDS011;11925;48.122;11.560;2023-12-04T00:41:53;13.40;;;8.70;;
23496;SDS011;11925;48.122;11.560;2023-12-04T00:44:22;12.73;;;8.38;;
23496;SDS011;11925;48.122;11.560;2023-12-04T00:46:50;13.02;;;8.20;;
23496;SDS011;11925;48.122;11.560;2023-12-04T00:49:19;11.93;;;7.88;;
23496;SDS011;11925;48.122;11.560;2023-12-04T00:51:48;13.15;;;8.30;;
23496;SDS011;11925;48.122;11.560;2023-12-04T00:54:17;12.93;;;8.13;;
23496;SDS011;11925;48.122;11.560;2023-12-04T00:56:47;12.40;;;8.57;;
23496;SDS011;11925;48.122;11.560;2023-12-04T00:59:15;11.90;;;7.97;;
23496;SDS011;11925;48.122;11.560;2023-12-04T01:01:44;11.88;;;8.05;;
23496;SDS011;11925;48.122;11.560;2023-12-04T01:04:13;12.07;;;7.38;;
23496;SDS011;11925;48.122;11.560;2023-12-04T01:06:41;10.88;;;7.63;;
23496;SDS011;11925;48.122;11.560;2023-12-04T01:09:10;12.23;;;7.88;;
23496;SDS011;11925;48.122;11.560;2023-12-04T01:11:39;12.35;;;8.25;;
23496;SDS011;11925;48.122;11.560;2023-12-04T01:14:09;11.38;;;7.80;;
23496;SDS011;11925;48.122;11.560;2023-12-04T01:16:38;13.23;;;7.85;;
23496;SDS011;11925;48.122;11.560;2023-12-04T01:19:06;11.63;;;7.68;;
23496;SDS011;11925;48.122;11.560;2023-12-04T01:21:35;12.57;;;8.15;;
23496;SDS011;11925;48.122;11.560;2023-12-04T01:24:04;14.40;;;8.00;;
23496;SDS011;11925;48.122;11.560;2023-12-04T01:26:33;13.30;;;8.20;;
23496;SDS011;11925;48.122;11.560;2023-12-04T01:29:01;11.20;;;7.95;;
23496;SDS011;11925;48.122;11.560;2023-12-04T01:31:32;10.85;;;7.25;;
23496;SDS011;11925;48.122;11.560;2023-12-04T01:34:01;12.70;;;7.82;;
23496;SDS011;11925;48.122;11.560;2023-12-04T01:36:30;11.55;;;7.47;;
23496;SDS011;11925;48.122;11.560;2023-12-04T01:38:59;10.20;;;7.10;;
23496;SDS011;11925;48.122;11.560;2023-12-04T01:41:27;10.05;;;6.63;;
23496;SDS011;11925;48.122;11.560;2023-12-04T01:43:56;10.38;;;6.90;;
23496;SDS011;11925;48.122;11.560;2023-12-04T01:46:25;11.60;;;7.65;;
23496;SDS011;11925;48.122;11.560;2023-12-04T01:48:55;9.85;;;7.00;;
23496;SDS011;11925;48.122;11.560;2023-12-04T01:51:24;10.57;;;7.47;;
23496;SDS011;11925;48.122;11.560;2023-12-04T01:53:55;9.90;;;6.47;;
23496;SDS011;11925;48.122;11.560;2023-12-04T01:56:27;10.02;;;6.57;;
23496;SDS011;11925;48.122;11.560;2023-12-04T01:58:57;9.18;;;6.43;;
23496;SDS011;11925;48.122;11.560;2023-12-04T02:01:26;10.13;;;6.25;;
23496;SDS011;11925;48.122;11.560;2023-12-04T02:03:57;9.18;;;6.38;;
23496;SDS011;11925;48.122;11.560;2023-12-04T02:08:56;9.70;;;6.38;;
23496;SDS011;11925;48.122;11.560;2023-12-04T02:11:25;10.60;;;6.80;;
23496;SDS011;11925;48.122;11.560;2023-12-04T02:13:53;11.00;;;6.35;;
23496;SDS011;11925;48.122;11.560;2023-12-04T02:16:22;10.38;;;6.60;;
23496;SDS011;11925;48.122;11.560;2023-12-04T02:18:52;8.30;;;5.70;;
23496;SDS011;11925;48.122;11.560;2023-12-04T02:21:23;9.20;;;6.20;;
23496;SDS011;11925;48.122;11.560;2023-12-04T02:23:53;7.07;;;5.20;;
23496;SDS011;11925;48.122;11.560;2023-12-04T02:26:24;9.88;;;6.32;;
23496;SDS011;11925;48.122;11.560;2023-12-04T02:28:55;9.77;;;6.60;;
23496;SDS011;11925;48.122;11.560;2023-12-04T02:31:26;9.05;;;5.90;;
23496;SDS011;11925;48.122;11.560;2023-12-04T02:33:56;8.57;;;5.75;;
23496;SDS011;11925;48.122;11.560;2023-12-04T02:36:25;9.77;;;5.35;;
23496;SDS011;11925;48.122;11.560;2023-12-04T02:38:57;8.23;;;5.25;;
23496;SDS011;11925;48.122;11.560;2023-12-04T02:41:26;6.93;;;4.88;;
23496;SDS011;11925;48.122;11.560;2023-12-04T02:43:55;7.90;;;4.97;;
23496;SDS011;11925;48.122;11.560;2023-12-04T02:46:24;7.50;;;5.20;;
23496;SDS011;11925;48.122;11.560;2023-12-04T02:48:53;6.70;;;4.90;;
23496;SDS011;11925;48.122;11.560;2023-12-04T02:51:21;7.20;;;4.82;;
23496;SDS011;11925;48.122;11.560;2023-12-04T02:53:53;8.70;;;5.10;;
23496;SDS011;11925;48.122;11.560;2023-12-04T02:56:23;7.28;;;4.95;;
23496;SDS011;11925;48.122;11.560;2023-12-04T02:58:52;7.35;;;4.95;;
23496;SDS011;11925;48.122;11.560;2023-12-04T03:01:20;8.02;;;4.93;;
23496;SDS011;11925;48.122;11.560;2023-12-04T03:03:49;8.77;;;5.00;;
23496;SDS011;11925;48.122;11.560;2023-12-04T03:06:18;8.38;;;5.13;;
23496;SDS011;11925;48.122;11.560;2023-12-04T03:08:47;7.38;;;5.20;;
23496;SDS011;11925;48.122;11.560;2023-12-04T03:11:16;8.10;;;4.95;;
23496;SDS011;11925;48.122;11.560;2023-12-04T03:13:46;8.30;;;5.20;;
23496;SDS011;11925;48.122;11.560;2023-12-04T03:16:15;7.82;;;5.22;;
23496;SDS011;11925;48.122;11.560;2023-12-04T03:18:44;9.35;;;5.15;;
23496;SDS011;11925;48.122;11.560;2023-12-04T03:21:13;7.80;;;5.03;;
23496;SDS011;11925;48.122;11.560;2023-12-04T03:23:41;8.05;;;4.85;;
23496;SDS011;11925;48.122;11.560;2023-12-04T03:26:10;8.38;;;5.10;;
23496;SDS011;11925;48.122;11.560;2023-12-04T03:28:39;7.63;;;4.80;;
23496;SDS011;11925;48.122;11.560;2023-12-04T03:31:09;9.45;;;5.70;;
23496;SDS011;11925;48.122;11.560;2023-12-04T03:33:38;7.97;;;5.13;;
23496;SDS011;11925;48.122;11.560;2023-12-04T03:36:07;7.93;;;5.00;;
23496;SDS011;11925;48.122;11.560;2023-12-04T03:38:36;7.68;;;4.93;;
23496;SDS011;11925;48.122;11.560;2023-12-04T03:41:05;8.40;;;5.07;;
23496;SDS011;11925;48.122;11.560;2023-12-04T03:43:33;9.05;;;5.43;;
23496;SDS011;11925;48.122;11.560;2023-12-04T03:46:02;8.93;;;5.75;;
23496;SDS011;11925;48.122;11.560;2023-12-04T03:48:33;9.32;;;5.30;;
23496;SDS011;11925;48.122;11.560;2023-12-04T03:51:02;8.38;;;4.78;;
23496;SDS011;11925;48.122;11.560;2023-12-04T03:53:30;8.55;;;5.13;;
23496;SDS011;11925;48.122;11.560;2023-12-04T03:55:59;9.73;;;5.70;;
23496;SDS011;11925;48.122;11.560;2023-12-04T03:58:28;8.38;;;5.30;;
23496;SDS011;11925;48.122;11.560;2023-12-04T04:00:56;7.40;;;5.30;;
23496;SDS011;11925;48.122;11.560;2023-12-04T04:03:25;9.90;;;5.47;;
23496;SDS011;11925;48.122;11.560;2023-12-04T04:05:55;7.93;;;5.25;;
23496;SDS011;11925;48.122;11.560;2023-12-04T04:08:24;8.27;;;5.70;;
23496;SDS011;11925;48.122;11.560;2023-12-04T04:10:53;9.70;;;5.45;;
23496;SDS011;11925;48.122;11.560;2023-12-04T04:13:22;8.52;;;5.55;;
23496;SDS011;11925;48.122;11.560;2023-12-04T04:15:50;8.60;;;5.72;;
23496;SDS011;11925;48.122;11.560;2023-12-04T04:18:19;9.57;;;5.88;;
23496;SDS011;11925;48.122;11.560;2023-12-04T04:20:48;8.98;;;5.65;;
23496;SDS011;11925;48.122;11.560;2023-12-04T04:23:18;8.02;;;5.25;;
23496;SDS011;11925;48.122;11.560;2023-12-04T04:25:47;7.13;;;4.82;;
23496;SDS011;11925;48.122;11.560;2023-12-04T04:28:16;12.60;;;6.13;;
23496;SDS011;11925;48.122;11.560;2023-12-04T04:30:44;8.75;;;5.18;;
23496;SDS011;11925;48.122;11.560;2023-12-04T04:33:13;8.45;;;5.40;;
23496;SDS011;11925;48.122;11.560;2023-12-04T04:35:43;6.97;;;4.95;;
23496;SDS011;11925;48.122;11.560;2023-12-04T04:38:12;8.10;;;5.65;;
23496;SDS011;11925;48.122;11.560;2023-12-04T04:40:42;7.40;;;4.80;;
23496;SDS011;11925;48.122;11.560;2023-12-04T04:43:11;8.23;;;5.28;;
23496;SDS011;11925;48.122;11.560;2023-12-04T04:45:40;8.25;;;5.35;;
23496;SDS011;11925;48.122;11.560;2023-12-04T04:48:08;8.35;;;4.97;;
23496;SDS011;11925;48.122;11.560;2023-12-04T04:50:37;9.15;;;5.47;;
23496;SDS011;11925;48.122;11.560;2023-12-04T04:53:06;7.90;;;5.28;;
23496;SDS011;11925;48.122;11.560;2023-12-04T04:55:35;8.90;;;4.75;;
23496;SDS011;11925;48.122;11.560;2023-12-04T04:58:16;7.97;;;5.03;;
23496;SDS011;11925;48.122;11.560;2023-12-04T05:00:45;6.90;;;4.72;;
23496;SDS011;11925;48.122;11.560;2023-12-04T05:03:14;7.75;;;5.10;;
23496;SDS011;11925;48.122;11.560;2023-12-04T05:05:43;8.70;;;4.65;;
23496;SDS011;11925;48.122;11.560;2023-12-04T05:08:12;7.05;;;4.75;;
23496;SDS011;11925;48.122;11.560;2023-12-04T05:10:41;7.50;;;4.78;;
23496;SDS011;11925;48.122;11.560;2023-12-04T05:13:09;8.43;;;5.32;;
23496;SDS011;11925;48.122;11.560;2023-12-04T05:15:40;8.35;;;5.30;;
23496;SDS011;11925;48.122;11.560;2023-12-04T05:18:08;8.13;;;5.32;;
23496;SDS011;11925;48.122;11.560;2023-12-04T05:20:36;8.80;;;5.40;;
23496;SDS011;11925;48.122;11.560;2023-12-04T05:23:05;8.05;;;5.47;;
23496;SDS011;11925;48.122;11.560;2023-12-04T05:25:34;9.88;;;5.80;;
23496;SDS011;11925;48.122;11.560;2023-12-04T05:28:10;8.57;;;5.43;;
23496;SDS011;11925;48.122;11.560;2023-12-04T05:30:40;9.18;;;5.68;;
23496;SDS011;11925;48.122;11.560;2023-12-04T05:33:09;8.68;;;5.82;;
23496;SDS011;11925;48.122;11.560;2023-12-04T05:35:38;9.02;;;5.53;;
23496;SDS011;11925;48.122;11.560;2023-12-04T05:38:07;9.77;;;5.93;;
23496;SDS011;11925;48.122;11.560;2023-12-04T05:40:35;9.75;;;5.70;;
23496;SDS011;11925;48.122;11.560;2023-12-04T05:43:04;9.35;;;5.97;;
23496;SDS011;11925;48.122;11.560;2023-12-04T05:45:33;12.27;;;6.55;;
23496;SDS011;11925;48.122;11.560;2023-12-04T05:48:03;9.52;;;5.90;;
23496;SDS011;11925;48.122;11.560;2023-12-04T05:50:32;10.80;;;6.33;;
23496;SDS011;11925;48.122;11.560;2023-12-04T05:53:01;10.43;;;5.65;;
23496;SDS011;11925;48.122;11.560;2023-12-04T05:55:30;10.77;;;6.20;;
23496;SDS011;11925;48.122;11.560;2023-12-04T05:57:58;8.80;;;5.30;;
23496;SDS011;11925;48.122;11.560;2023-12-04T06:00:28;8.32;;;5.70;;
23496;SDS011;11925;48.122;11.560;2023-12-04T06:02:57;8.73;;;4.93;;
23496;SDS011;11925;48.122;11.560;2023-12-04T06:05:27;7.90;;;5.28;;
23496;SDS011;11925;48.122;11.560;2023-12-04T06:07:56;9.27;;;5.88;;
23496;SDS011;11925;48.122;11.560;2023-12-04T06:10:25;9.70;;;5.75;;
23496;SDS011;11925;48.122;11.560;2023-12-04T06:12:53;10.20;;;5.65;;
23496;SDS011;11925;48.122;11.560;2023-12-04T06:15:22;7.97;;;5.85;;
23496;SDS011;11925;48.122;11.560;2023-12-04T06:17:51;7.60;;;5.13;;
23496;SDS011;11925;48.122;11.560;2023-12-04T06:20:20;10.40;;;5.53;;
23496;SDS011;11925;48.122;11.560;2023-12-04T06:22:50;8.35;;;5.10;;
23496;SDS011;11925;48.122;11.560;2023-12-04T06:25:19;10.32;;;4.95;;
23496;SDS011;11925;48.122;11.560;2023-12-04T06:27:48;10.23;;;6.88;;
23496;SDS011;11925;48.122;11.560;2023-12-04T06:30:18;7.25;;;5.18;;
23496;SDS011;11925;48.122;11.560;2023-12-04T06:32:47;8.52;;;5.38;;
23496;SDS011;11925;48.122;11.560;2023-12-04T06:35:16;9.05;;;5.20;;
23496;SDS011;11925;48.122;11.560;2023-12-04T06:37:47;7.18;;;5.05;;
23496;SDS011;11925;48.122;11.560;2023-12-04T06:40:21;7.65;;;5.03;;
23496;SDS011;11925;48.122;11.560;2023-12-04T06:42:50;7.55;;;4.57;;
23496;SDS011;11925;48.122;11.560;2023-12-04T06:45:19;7.82;;;5.07;;
23496;SDS011;11925;48.122;11.560;2023-12-04T06:47:49;8.10;;;4.85;;
23496;SDS011;11925;48.122;11.560;2023-12-04T06:50:19;8.80;;;4.75;;
23496;SDS011;11925;48.122;11.560;2023-12-04T06:52:47;7.47;;;4.70;;
23496;SDS011;11925;48.122;11.560;2023-12-04T06:55:17;7.07;;;4.72;;
23496;SDS011;11925;48.122;11.560;2023-12-04T06:57:46;7.65;;;4.93;;
23496;SDS011;11925;48.122;11.560;2023-12-04T07:00:15;7.60;;;4.68;;
23496;SDS011;11925;48.122;11.560;2023-12-04T07:02:48;8.45;;;4.88;;
23496;SDS011;11925;48.122;11.560;2023-12-04T07:05:17;8.88;;;5.22;;
23496;SDS011;11925;48.122;11.560;2023-12-04T07:07:46;7.63;;;4.60;;
23496;SDS011;11925;48.122;11.560;2023-12-04T07:10:15;7.10;;;4.22;;
23496;SDS011;11925;48.122;11.560;2023-12-04T07:12:45;8.43;;;4.63;;
23496;SDS011;11925;48.122;11.560;2023-12-04T07:15:13;8.27;;;5.47;;
23496;SDS011;11925;48.122;11.560;2023-12-04T07:17:43;8.52;;;5.63;;
23496;SDS011;11925;48.122;11.560;2023-12-04T07:20:12;7.93;;;5.20;;
23496;SDS011;11925;48.122;11.560;2023-12-04T07:22:40;8.38;;;5.60;;
23496;SDS011;11925;48.122;11.560;2023-12-04T07:25:09;7.85;;;4.90;;
23496;SDS011;11925;48.122;11.560;2023-12-04T07:27:37;6.70;;;4.47;;
23496;SDS011;11925;48.122;11.560;2023-12-04T07:30:08;8.05;;;4.80;;
23496;SDS011;11925;48.122;11.560;2023-12-04T07:32:37;8.05;;;4.47;;
23496;SDS011;11925;48.122;11.560;2023-12-04T07:35:06;9.18;;;4.70;;
23496;SDS011;11925;48.122;11.560;2023-12-04T07:37:35;9.48;;;5.38;;
23496;SDS011;11925;48.122;11.560;2023-12-04T07:40:05;9.80;;;5.00;;
23496;SDS011;11925;48.122;11.560;2023-12-04T07:42:35;7.32;;;5.00;;
23496;SDS011;11925;48.122;11.560;2023-12-04T07:45:04;8.63;;;5.05;;
23496;SDS011;11925;48.122;11.560;2023-12-04T07:47:35;8.98;;;4.70;;
23496;SDS011;11925;48.122;11.560;2023-12-04T07:50:04;9.63;;;5.60;;
23496;SDS011;11925;48.122;11.560;2023-12-04T07:52:34;8.10;;;5.05;;
23496;SDS011;11925;48.122;11.560;2023-12-04T07:55:04;8.05;;;5.03;;
23496;SDS011;11925;48.122;11.560;2023-12-04T07:57:33;9.68;;;5.05;;
23496;SDS011;11925;48.122;11.560;2023-12-04T08:00:02;8.35;;;5.55;;
23496;SDS011;11925;48.122;11.560;2023-12-04T08:02:32;8.30;;;5.35;;
23496;SDS011;11925;48.122;11.560;2023-12-04T08:05:03;6.95;;;4.90;;
23496;SDS011;11925;48.122;11.560;2023-12-04T08:07:31;8.32;;;5.53;;
23496;SDS011;11925;48.122;11.560;2023-12-04T08:10:00;9.02;;;5.18;;
23496;SDS011;11925;48.122;11.560;2023-12-04T08:12:28;12.63;;;7.22;;
23496;SDS011;11925;48.122;11.560;2023-12-04T08:14:57;8.80;;;5.80;;
23496;SDS011;11925;48.122;11.560;2023-12-04T08:17:25;8.13;;;5.20;;
23496;SDS011;11925;48.122;11.560;2023-12-04T08:19:54;7.75;;;5.07;;
23496;SDS011;11925;48.122;11.560;2023-12-04T08:22:24;8.80;;;5.03;;
23496;SDS011;11925;48.122;11.560;2023-12-04T08:24:52;7.43;;;5.10;;
23496;SDS011;11925;48.122;11.560;2023-12-04T08:27:21;7.68;;;4.97;;
23496;SDS011;11925;48.122;11.560;2023-12-04T08:29:49;8.77;;;5.28;;
23496;SDS011;11925;48.122;11.560;2023-12-04T08:32:18;7.57;;;4.65;;
23496;SDS011;11925;48.122;11.560;2023-12-04T08:34:48;6.70;;;4.20;;
23496;SDS011;11925;48.122;11.560;2023-12-04T08:37:16;7.38;;;4.82;;
23496;SDS011;11925;48.122;11.560;2023-12-04T08:39:47;8.07;;;5.25;;
23496;SDS011;11925;48.122;11.560;2023-12-04T08:42:16;6.90;;;4.78;;
23496;SDS011;11925;48.122;11.560;2023-12-04T08:44:49;8.73;;;5.05;;
23496;SDS011;11925;48.122;11.560;2023-12-04T08:47:18;7.07;;;4.82;;
23496;SDS011;11925;48.122;11.560;2023-12-04T08:49:46;8.57;;;5.57;;
23496;SDS011;11925;48.122;11.560;2023-12-04T08:52:15;7.20;;;4.70;;
23496;SDS011;11925;48.122;11.560;2023-12-04T08:54:44;9.68;;;4.70;;
23496;SDS011;11925;48.122;11.560;2023-12-04T08:57:13;7.93;;;5.10;;
23496;SDS011;11925;48.122;11.560;2023-12-04T08:59:42;7.90;;;5.20;;
23496;SDS011;11925;48.122;11.560;2023-12-04T09:02:10;10.70;;;6.00;;
23496;SDS011;11925;48.122;11.560;2023-12-04T09:04:40;8.70;;;5.32;;
23496;SDS011;11925;48.122;11.560;2023-12-04T09:07:10;9.60;;;5.10;;
23496;SDS011;11925;48.122;11.560;2023-12-04T09:09:59;8.63;;;5.57;;
23496;SDS011;11925;48.122;11.560;2023-12-04T09:12:37;11.80;;;7.25;;
23496;SDS011;11925;48.122;11.560;2023-12-04T09:15:07;13.65;;;7.55;;
23496;SDS011;11925;48.122;11.560;2023-12-04T09:17:36;13.50;;;7.88;;
23496;SDS011;11925;48.122;11.560;2023-12-04T09:20:36;11.75;;;6.90;;
23496;SDS011;11925;48.122;11.560;2023-12-04T09:23:04;11.75;;;6.55;;
23496;SDS011;11925;48.122;11.560;2023-12-04T09:25:35;10.70;;;6.70;;
23496;SDS011;11925;48.122;11.560;2023-12-04T09:28:05;11.18;;;6.20;;
23496;SDS011;11925;48.122;11.560;2023-12-04T09:30:35;9.20;;;6.38;;
23496;SDS011;11925;48.122;11.560;2023-12-04T09:33:05;8.98;;;5.78;;
23496;SDS011;11925;48.122;11.560;2023-12-04T09:35:34;7.85;;;5.65;;
23496;SDS011;11925;48.122;11.560;2023-12-04T09:38:02;9.75;;;6.00;;
23496;SDS011;11925;48.122;11.560;2023-12-04T09:40:31;11.18;;;7.28;;
23496;SDS011;11925;48.122;11.560;2023-12-04T09:43:00;11.00;;;7.20;;
23496;SDS011;11925;48.122;11.560;2023-12-04T09:45:30;12.10;;;6.70;;
23496;SDS011;11925;48.122;11.560;2023-12-04T09:50:29;10.82;;;6.93;;
23496;SDS011;11925;48.122;11.560;2023-12-04T09:52:57;11.65;;;7.05;;
23496;SDS011;11925;48.122;11.560;2023-12-04T09:55:28;10.35;;;6.68;;
23496;SDS011;11925;48.122;11.560;2023-12-04T09:57:57;11.18;;;7.32;;
23496;SDS011;11925;48.122;11.560;2023-12-04T10:00:26;15.13;;;9.52;;
23496;SDS011;11925;48.122;11.560;2023-12-04T10:02:57;16.33;;;10.63;;
23496;SDS011;11925;48.122;11.560;2023-12-04T10:05:26;18.77;;;10.93;;
23496;SDS011;11925;48.122;11.560;2023-12-04T10:07:55;20.10;;;11.57;;
23496;SDS011;11925;48.122;11.560;2023-12-04T10:10:23;22.02;;;12.50;;
23496;SDS011;11925;48.122;11.560;2023-12-04T10:12:52;22.45;;;14.13;;
23496;SDS011;11925;48.122;11.560;2023-12-04T10:15:22;24.17;;;13.40;;
23496;SDS011;11925;48.122;11.560;2023-12-04T10:17:50;21.15;;;13.65;;
23496;SDS011;11925;48.122;11.560;2023-12-04T10:20:22;25.35;;;14.25;;
23496;SDS011;11925;48.122;11.560;2023-12-04T10:22:52;23.75;;;14.65;;
23496;SDS011;11925;48.122;11.560;2023-12-04T10:25:22;25.67;;;15.80;;
23496;SDS011;11925;48.122;11.560;2023-12-04T10:27:52;27.25;;;16.30;;
23496;SDS011;11925;48.122;11.560;2023-12-04T10:30:25;23.88;;;15.48;;
23496;SDS011;11925;48.122;11.560;2023-12-04T10:32:55;26.48;;;15.95;;
23496;SDS011;11925;48.122;11.560;2023-12-04T10:35:32;25.70;;;17.05;;
23496;SDS011;11925;48.122;11.560;2023-12-04T10:38:03;27.00;;;16.88;;
23496;SDS011;11925;48.122;11.560;2023-12-04T10:40:33;26.63;;;15.90;;
23496;SDS011;11925;48.122;11.560;2023-12-04T10:43:14;26.05;;;15.95;;
23496;SDS011;11925;48.122;11.560;2023-12-04T10:45:44;29.15;;;16.75;;
23496;SDS011;11925;48.122;11.560;2023-12-04T10:48:14;28.17;;;15.88;;
23496;SDS011;11925;48.122;11.560;2023-12-04T10:50:45;25.17;;;14.98;;
23496;SDS011;11925;48.122;11.560;2023-12-04T10:55:44;25.55;;;14.82;;
23496;SDS011;11925;48.122;11.560;2023-12-04T10:58:14;20.48;;;13.30;;
23496;SDS011;11925;48.122;11.560;2023-12-04T11:00:43;25.98;;;15.00;;
23496;SDS011;11925;48.122;11.560;2023-12-04T11:03:13;22.83;;;13.25;;
23496;SDS011;11925;48.122;11.560;2023-12-04T11:05:53;21.75;;;13.75;;
23496;SDS011;11925;48.122;11.560;2023-12-04T11:08:23;21.15;;;12.18;;
23496;SDS011;11925;48.122;11.560;2023-12-04T11:10:57;21.40;;;12.68;;
23496;SDS011;11925;48.122;11.560;2023-12-04T11:13:30;19.40;;;12.18;;
23496;SDS011;11925;48.122;11.560;2023-12-04T11:16:02;18.23;;;10.75;;
23496;SDS011;11925;48.122;11.560;2023-12-04T11:18:35;19.15;;;11.80;;
23496;SDS011;11925;48.122;11.560;2023-12-04T11:21:08;20.80;;;11.20;;
23496;SDS011;11925;48.122;11.560;2023-12-04T11:23:38;16.77;;;11.10;;
23496;SDS011;11925;48.122;11.560;2023-12-04T11:26:08;20.00;;;12.52;;
23496;SDS011;11925;48.122;11.560;2023-12-04T11:28:37;18.67;;;11.75;;
23496;SDS011;11925;48.122;11.560;2023-12-04T11:31:06;18.50;;;11.63;;
23496;SDS011;11925;48.122;11.560;2023-12-04T11:33:35;19.10;;;11.70;;
23496;SDS011;11925;48.122;11.560;2023-12-04T11:36:06;18.42;;;11.45;;
23496;SDS011;11925;48.122;11.560;2023-12-04T11:38:43;18.70;;;11.38;;
23496;SDS011;11925;48.122;11.560;2023-12-04T11:41:14;23.45;;;10.98;;
23496;SDS011;11925;48.122;11.560;2023-12-04T11:43:49;63.88;;;15.15;;
23496;SDS011;11925;48.122;11.560;2023-12-04T11:46:19;59.22;;;13.45;;
23496;SDS011;11925;48.122;11.560;2023-12-04T11:48:50;60.60;;;14.30;;
23496;SDS011;11925;48.122;11.560;2023-12-04T11:54:18;64.60;;;15.43;;
23496;SDS011;11925;48.122;11.560;2023-12-04T11:56:57;44.72;;;14.70;;
23496;SDS011;11925;48.122;11.560;2023-12-04T11:59:26;36.75;;;13.45;;
23496;SDS011;11925;48.122;11.560;2023-12-04T12:01:55;38.58;;;13.95;;
23496;SDS011;11925;48.122;11.560;2023-12-04T12:04:25;108.93;;;18.38;;
23496;SDS011;11925;48.122;11.560;2023-12-04T12:06:59;41.15;;;12.73;;
23496;SDS011;11925;48.122;11.560;2023-12-04T12:09:29;31.15;;;11.82;;
23496;SDS011;11925;48.122;11.560;2023-12-04T12:12:00;27.92;;;12.20;;
23496;SDS011;11925;48.122;11.560;2023-12-04T12:14:30;23.05;;;11.30;;
23496;SDS011;11925;48.122;11.560;2023-12-04T12:16:59;25.30;;;11.65;;
23496;SDS011;11925;48.122;11.560;2023-12-04T12:19:28;20.48;;;12.45;;
23496;SDS011;11925;48.122;11.560;2023-12-04T12:21:58;21.80;;;11.43;;
23496;SDS011;11925;48.122;11.560;2023-12-04T12:24:29;101.28;;;16.30;;
23496;SDS011;11925;48.122;11.560;2023-12-04T12:26:58;212.25;;;21.30;;
23496;SDS011;11925;48.122;11.560;2023-12-04T12:29:27;88.95;;;14.43;;
23496;SDS011;11925;48.122;11.560;2023-12-04T12:31:55;49.72;;;11.95;;
23496;SDS011;11925;48.122;11.560;2023-12-04T12:34:23;53.88;;;10.85;;
23496;SDS011;11925;48.122;11.560;2023-12-04T12:36:54;21.57;;;9.60;;
23496;SDS011;11925;48.122;11.560;2023-12-04T12:39:24;18.73;;;8.63;;
23496;SDS011;11925;48.122;11.560;2023-12-04T12:41:53;28.05;;;10.00;;
23496;SDS011;11925;48.122;11.560;2023-12-04T12:44:22;86.05;;;15.20;;
23496;SDS011;11925;48.122;11.560;2023-12-04T12:46:51;36.42;;;10.43;;
23496;SDS011;11925;48.122;11.560;2023-12-04T12:49:20;28.75;;;9.90;;
23496;SDS011;11925;48.122;11.560;2023-12-04T12:52:02;24.02;;;9.38;;
23496;SDS011;11925;48.122;11.560;2023-12-04T12:54:34;16.63;;;8.77;;
23496;SDS011;11925;48.122;11.560;2023-12-04T12:57:05;17.70;;;9.55;;
23496;SDS011;11925;48.122;11.560;2023-12-04T12:59:34;17.50;;;9.93;;
23496;SDS011;11925;48.122;11.560;2023-12-04T13:02:03;24.35;;;9.48;;
23496;SDS011;11925;48.122;11.560;2023-12-04T13:04:33;19.90;;;9.30;;
23496;SDS011;11925;48.122;11.560;2023-12-04T13:07:02;18.05;;;9.10;;
23496;SDS011;11925;48.122;11.560;2023-12-04T13:09:34;28.13;;;9.77;;
23496;SDS011;11925;48.122;11.560;2023-12-04T13:12:03;20.10;;;8.30;;
23496;SDS011;11925;48.122;11.560;2023-12-04T13:14:33;18.52;;;9.52;;
23496;SDS011;11925;48.122;11.560;2023-12-04T13:17:02;17.73;;;8.55;;
23496;SDS011;11925;48.122;11.560;2023-12-04T13:19:33;17.85;;;8.50;;
23496;SDS011;11925;48.122;11.560;2023-12-04T13:22:03;17.70;;;8.48;;
23496;SDS011;11925;48.122;11.560;2023-12-04T13:24:33;18.02;;;8.88;;
23496;SDS011;11925;48.122;11.560;2023-12-04T13:27:02;14.95;;;8.55;;
23496;SDS011;11925;48.122;11.560;2023-12-04T13:29:30;15.00;;;8.65;;
23496;SDS011;11925;48.122;11.560;2023-12-04T13:31:59;17.23;;;8.77;;
23496;SDS011;11925;48.122;11.560;2023-12-04T13:34:28;15.18;;;9.27;;
23496;SDS011;11925;48.122;11.560;2023-12-04T13:36:56;16.92;;;9.23;;
23496;SDS011;11925;48.122;11.560;2023-12-04T13:39:25;14.23;;;8.63;;
23496;SDS011;11925;48.122;11.560;2023-12-04T13:42:15;14.10;;;9.00;;
23496;SDS011;11925;48.122;11.560;2023-12-04T13:45:02;14.23;;;8.65;;
23496;SDS011;11925;48.122;11.560;2023-12-04T13:47:36;16.77;;;9.25;;
23496;SDS011;11925;48.122;11.560;2023-12-04T13:50:05;17.10;;;8.68;;
23496;SDS011;11925;48.122;11.560;2023-12-04T13:55:05;16.77;;;9.20;;
23496;SDS011;11925;48.122;11.560;2023-12-04T13:57:43;15.35;;;8.85;;
23496;SDS011;11925;48.122;11.560;2023-12-04T14:00:27;14.60;;;8.35;;
23496;SDS011;11925;48.122;11.560;2023-12-04T14:02:56;12.82;;;9.27;;
23496;SDS011;11925;48.122;11.560;2023-12-04T14:05:31;18.25;;;9.13;;
23496;SDS011;11925;48.122;11.560;2023-12-04T14:08:02;12.18;;;8.50;;
23496;SDS011;11925;48.122;11.560;2023-12-04T14:10:32;13.13;;;8.70;;
23496;SDS011;11925;48.122;11.560;2023-12-04T14:13:02;15.20;;;9.23;;
23496;SDS011;11925;48.122;11.560;2023-12-04T14:15:31;12.75;;;8.50;;
23496;SDS011;11925;48.122;11.560;2023-12-04T14:18:02;14.35;;;9.18;;
23496;SDS011;11925;48.122;11.560;2023-12-04T14:20:30;14.68;;;8.85;;
23496;SDS011;11925;48.122;11.560;2023-12-04T14:22:59;13.68;;;9.43;;
23496;SDS011;11925;48.122;11.560;2023-12-04T14:25:28;16.13;;;9.43;;
23496;SDS011;11925;48.122;11.560;2023-12-04T14:27:57;16.52;;;9.88;;
23496;SDS011;11925;48.122;11.560;2023-12-04T14:30:28;15.55;;;10.88;;
23496;SDS011;11925;48.122;11.560;2023-12-04T14:32:57;17.00;;;11.43;;
23496;SDS011;11925;48.122;11.560;2023-12-04T14:35:26;21.63;;;12.15;;
23496;SDS011;11925;48.122;11.560;2023-12-04T14:37:55;21.00;;;12.20;;
23496;SDS011;11925;48.122;11.560;2023-12-04T14:40:23;17.98;;;12.30;;
23496;SDS011;11925;48.122;11.560;2023-12-04T14:42:52;20.52;;;13.02;;
23496;SDS011;11925;48.122;11.560;2023-12-04T14:45:22;21.40;;;13.68;;
23496;SDS011;11925;48.122;11.560;2023-12-04T14:47:52;22.05;;;13.30;;
23496;SDS011;11925;48.122;11.560;2023-12-04T14:50:23;23.15;;;13.40;;
23496;SDS011;11925;48.122;11.560;2023-12-04T14:52:52;25.13;;;14.82;;
23496;SDS011;11925;48.122;11.560;2023-12-04T14:55:23;24.67;;;14.00;;